FMMI

Ivato Airport

Antananarivo, Madagascar
METAR FMMI 170230Z 00000KT 4000 BR FEW020 13/13 Q1020 TEMPO 2500
Observed Flight Rules
Oct-17 @ 02:30 UTC (39 minutes ago) Instrument Flight Rules
Visibility Clouds Conditions
4,007 meters
  • Few at 2,000' AGL
  • Mist
Temperatures Readings
Current 13°C / 55°F
Dewpoint 13°C / 55°F
Humidity 100%
Altimeter 30.12" Hg
Pressure 1020 hPa
Elevation 1276
METAR FMMI 170230Z 00000KT 4000 BR FEW020 13/13 Q1020 TEMPO 2500
Observed Flight Rules
Oct-17 @ 02:30 UTC
(39 minutes ago)
IFR
Clouds
  • Few at 2,000' AGL
Conditions
  • Mist
Temperature Dewpoint
13°C / 55°F 13°C / 55°F
Humidity Altimeter Pressure
100% 30.12" Hg 1020 hPa